Aviation Digital Data Service (ADDS)

Output produced by METARs form (0902 UTC 19 November 2018)
found at http://www.aviationweather.gov/metar/data/
 
KRWF 190520Z 1906/2006 30006KT P6SM OVC050 
     FM191200 34007KT P6SM BKN030 
     FM191400 33011G19KT P6SM BKN025 
     FM192200 33010KT P6SM SCT030
       
KMSP 190841Z 1909/2012 VRB03KT P6SM VCSH OVC090 
     FM191200 35006KT P6SM SCT020 OVC070 
     FM191700 35010G16KT P6SM OVC020 
     FM192100 35010KT P6SM BKN035 
     FM200000 34009KT P6SM FEW030